Map

Track Data

SID SEASON NUMBER BASIN SUBBASIN NAME ISO_TIME NATURE LAT LON WMO_WIND WMO_PRES WMO_AGENCY TRACK_TYPE DIST2LAND LANDFALL IFLAG USA_AGENCY USA_ATCF_ID USA_LAT USA_LON USA_RECORD USA_STATUS USA_WIND USA_PRES USA_SSHS USA_R34_NE USA_R34_SE USA_R34_SW USA_R34_NW USA_R50_NE USA_R50_SE USA_R50_SW USA_R50_NW USA_R64_NE USA_R64_SE USA_R64_SW USA_R64_NW USA_POCI USA_ROCI USA_RMW USA_EYE TOKYO_LAT TOKYO_LON TOKYO_GRADE TOKYO_WIND TOKYO_PRES TOKYO_R50_DIR TOKYO_R50_LONG TOKYO_R50_SHORT TOKYO_R30_DIR TOKYO_R30_LONG TOKYO_R30_SHORT TOKYO_LAND CMA_LAT CMA_LON CMA_CAT CMA_WIND CMA_PRES HKO_LAT HKO_LON HKO_CAT HKO_WIND HKO_PRES NEWDELHI_LAT NEWDELHI_LON NEWDELHI_GRADE NEWDELHI_WIND NEWDELHI_PRES NEWDELHI_CI NEWDELHI_DP NEWDELHI_POCI REUNION_LAT REUNION_LON REUNION_TYPE REUNION_WIND REUNION_PRES REUNION_TNUM REUNION_CI REUNION_RMW REUNION_R34_NE REUNION_R34_SE REUNION_R34_SW REUNION_R34_NW REUNION_R50_NE REUNION_R50_SE REUNION_R50_SW REUNION_R50_NW REUNION_R64_NE REUNION_R64_SE REUNION_R64_SW REUNION_R64_NW BOM_LAT BOM_LON BOM_TYPE BOM_WIND BOM_PRES BOM_TNUM BOM_CI BOM_RMW BOM_R34_NE BOM_R34_SE BOM_R34_SW BOM_R34_NW BOM_R50_NE BOM_R50_SE BOM_R50_SW BOM_R50_NW BOM_R64_NE BOM_R64_SE BOM_R64_SW BOM_R64_NW BOM_ROCI BOM_POCI BOM_EYE BOM_POS_METHOD BOM_PRES_METHOD NADI_LAT NADI_LON NADI_CAT NADI_WIND NADI_PRES WELLINGTON_LAT WELLINGTON_LON WELLINGTON_WIND WELLINGTON_PRES DS824_LAT DS824_LON DS824_STAGE DS824_WIND DS824_PRES TD9636_LAT TD9636_LON TD9636_STAGE TD9636_WIND TD9636_PRES TD9635_LAT TD9635_LON TD9635_WIND TD9635_PRES TD9635_ROCI NEUMANN_LAT NEUMANN_LON NEUMANN_CLASS NEUMANN_WIND NEUMANN_PRES MLC_LAT MLC_LON MLC_CLASS MLC_WIND MLC_PRES USA_GUST BOM_GUST BOM_GUST_PER REUNION_GUST REUNION_GUST_PER USA_SEAHGT USA_SEARAD_NE USA_SEARAD_SE USA_SEARAD_SW USA_SEARAD_NW STORM_SPEED STORM_DIR
1975243N31213 1975 83 EP CP NOT_NAMED 1975-08-31 00:00:00 TS 31.0000 -147.500 25 hurdat_epa main 1419 1364 O________O____ hurdat_epa CP011975 31.0000 -147.500 TD 25 -1 31.0000 -147.500 TC 25 15 259
1975243N31213 1975 83 EP CP NOT_NAMED 1975-08-31 03:00:00 TS 30.8564 -148.385 main 1359 1292 P________P____ CP011975 30.8585 -148.428 TD 25 -1 30.8585 -148.428 TC 25 16 259
1975243N31213 1975 83 EP CP NOT_NAMED 1975-08-31 06:00:00 TS 30.7000 -149.320 25 hurdat_epa main 1292 1224 O________O____ hurdat_epa CP011975 30.7000 -149.400 TD 25 -1 30.7000 -149.400 TC 25 17 259
1975243N31213 1975 83 EP CP NOT_NAMED 1975-08-31 09:00:00 TS 30.5356 -150.340 main 1224 1170 P________P____ CP011975 30.5272 -150.443 TD 25 -1 30.5272 -150.443 TC 25 18 261
1975243N31213 1975 83 EP CP NOT_NAMED 1975-08-31 12:00:00 TS 30.4200 -151.400 25 hurdat_epa main 1166 1125 O________O____ hurdat_epa CP011975 30.4000 -151.500 TD 25 -1 30.4000 -151.500 TC 25 18 265
1975243N31213 1975 83 EP CP NOT_NAMED 1975-08-31 15:00:00 TS 30.3919 -152.456 main 1120 1080 P________P____ CP011975 30.3616 -152.507 TD 25 -1 30.3616 -152.507 TC 25 18 271
1975243N31213 1975 83 EP CP NOT_NAMED 1975-08-31 18:00:00 TS 30.4400 -153.500 25 hurdat_epa main 1076 1050 O________O____ hurdat_epa CP011975 30.4000 -153.500 TD 25 -1 30.4000 -153.500 TC 25 18 275
1975243N31213 1975 83 EP CP NOT_NAMED 1975-08-31 21:00:00 TS 30.5399 -154.579 main 1047 1025 P________P____ CP011975 30.4931 -154.574 TD 27 -1 30.4931 -154.574 TC 27 17 277
1975243N31213 1975 83 EP CP NOT_NAMED 1975-09-01 00:00:00 TS 30.6600 -155.500 30 hurdat_epa main 1032 1011 O________O____ hurdat_epa CP011975 30.6000 -155.500 TD 30 -1 30.6000 -155.500 TC 30 13 278
1975243N31213 1975 83 EP CP NOT_NAMED 1975-09-01 03:00:00 TS 30.7268 -156.112 main 1011 1008 P________P____ CP011975 30.6412 -156.083 TD 30 -1 30.6412 -156.083 TC 30 9 280
1975243N31213 1975 83 EP CP NOT_NAMED 1975-09-01 06:00:00 TS 30.8200 -156.540 30 hurdat_epa main 1010 1008 O________O____ hurdat_epa CP011975 30.7000 -156.500 TD 30 -1 30.7000 -156.500 TC 30 8 290
1975243N31213 1975 83 EP CP NOT_NAMED 1975-09-01 09:00:00 TS 30.9842 -156.947 main 1022 1017 P________P____ CP011975 30.8198 -156.958 TD 30 -1 30.8198 -156.958 TC 30 8 300
1975243N31213 1975 83 EP CP NOT_NAMED 1975-09-01 12:00:00 TS 31.2000 -157.320 30 hurdat_epa main 1035 1033 O________O____ hurdat_epa CP011975 31.0000 -157.400 TD 30 -1 31.0000 -157.400 TC 30 8 304
1975243N31213 1975 83 EP CP NOT_NAMED 1975-09-01 15:00:00 TS 31.4410 -157.739 main 1050 1050 P________P____ CP011975 31.2350 -157.865 TD 30 -1 31.2350 -157.865 TC 30 9 306
1975243N31213 1975 83 EP CP NOT_NAMED 1975-09-01 18:00:00 TS 31.7000 -158.140 30 hurdat_epa main 1078 1077 O________O____ hurdat_epa CP011975 31.5000 -158.300 TD 30 -1 31.5000 -158.300 TC 30 8 309
1975243N31213 1975 83 EP CP NOT_NAMED 1975-09-01 21:00:00 TS 31.9483 -158.488 main 1097 1097 P________P____ CP011975 31.7498 -158.673 TD 32 -1 31.7498 -158.673 TC 32 8 312
1975243N31213 1975 83 EP CP NOT_NAMED 1975-09-02 00:00:00 TS 32.2000 -158.800 35 hurdat_epa main 1128 1128 O________O____ hurdat_epa CP011975 32.0000 -159.000 TS 35 0 32.0000 -159.000 TC 35 7 313
1975243N31213 1975 83 EP CP NOT_NAMED 1975-09-02 03:00:00 TS 32.4345 -159.114 main 1150 1150 P________P____ CP011975 32.2200 -159.330 TS 35 0 32.2200 -159.330 TC 35 7 317
1975243N31213 1975 83 EP CP NOT_NAMED 1975-09-02 06:00:00 TS 32.7200 -159.380 35 hurdat_epa main 1183 1183 O________O____ hurdat_epa CP011975 32.5000 -159.600 TS 35 0 32.5000 -159.600 TC 35 8 328
1975243N31213 1975 83 EP CP NOT_NAMED 1975-09-02 09:00:00 TS 33.1144 -159.616 main 1228 1228 P________P____ CP011975 32.9199 -159.810 TS 37 0 32.9199 -159.810 TC 37 9 341
1975243N31213 1975 83 EP CP NOT_NAMED 1975-09-02 12:00:00 TS 33.5600 -159.720 40 hurdat_epa main 1284 1284 O________O____ hurdat_epa CP011975 33.4000 -159.900 TS 40 0 33.4000 -159.900 TC 40 9 358
1975243N31213 1975 83 EP CP NOT_NAMED 1975-09-02 15:00:00 TS 34.0019 -159.650 main 1328 1328 P________P____ CP011975 33.8648 -159.875 TS 40 0 33.8648 -159.875 TC 40 9 16
1975243N31213 1975 83 EP CP NOT_NAMED 1975-09-02 18:00:00 TS 34.4200 -159.420 40 hurdat_epa main 1373 1373 O________O____ hurdat_epa CP011975 34.3000 -159.700 TS 40 0 34.3000 -159.700 TC 40 8 33
1975243N31213 1975 83 EP CP NOT_NAMED 1975-09-02 21:00:00 TS 34.7045 -159.104 main 1406 1406 P________P____ CP011975 34.5899 -159.408 TS 40 0 34.5899 -159.408 TC 40 9 41
1975243N31213 1975 83 EP CP NOT_NAMED 1975-09-03 00:00:00 TS 35.1000 -158.700 40 hurdat_epa main 1452 1452 O________O____ hurdat_epa CP011975 35.0000 -159.000 TS 40 0 35.0000 -159.000 TC 40 13 32
1975243N31213 1975 83 EP CP NOT_NAMED 1975-09-03 03:00:00 TS 35.8418 -158.242 main 1532 1532 P________P____ CP011975 35.7905 -158.487 TS 47 0 35.7905 -158.487 TC 47 18 24
1975243N31213 1975 83 EP CP NOT_NAMED 1975-09-03 06:00:00 TS 36.7000 -157.800 55 hurdat_epa main 1635 1635 O________O____ hurdat_epa CP011975 36.7000 -158.000 TS 55 0 36.7000 -158.000 TC 55 17 20
1975243N31213 1975 83 EP CP NOT_NAMED 1975-09-03 09:00:00 TS 37.4186 -157.534 main 1716 1716 P________P____ CP011975 37.4413 -157.783 TS 57 0 37.4413 -157.783 TC 57 15 18
1975243N31213 1975 83 EP CP NOT_NAMED 1975-09-03 12:00:00 TS 38.1600 -157.200 60 hurdat_epa main 1807 1776 O________O____ hurdat_epa CP011975 38.2000 -157.500 TS 60 0 38.2000 -157.500 TC 60 18 25
1975243N31213 1975 83 EP CP NOT_NAMED 1975-09-03 15:00:00 TS 39.0194 -156.590 main 1776 1712 P________P____ CP011975 39.0999 -156.863 TS 62 0 39.0999 -156.863 TC 62 21 32
1975243N31213 1975 83 EP CP NOT_NAMED 1975-09-03 18:00:00 TS 39.9000 -155.800 65 hurdat_epa main 1712 1669 O________O____ hurdat_epa CP011975 40.0000 -156.000 HU 65 1 40.0000 -156.000 TC 65 20 37
1975243N31213 1975 83 EP CP NOT_NAMED 1975-09-03 21:00:00 TS 40.6557 -155.011 main 1663 1621 P________P____ CP011975 40.6954 -155.103 HU 65 1 40.6954 -155.103 TC 65 21 40
1975243N31213 1975 83 EP CP NOT_NAMED 1975-09-04 00:00:00 TS 41.5000 -154.000 65 990 hurdat_epa main 1613 1535 O________O____ hurdat_epa CP011975 41.5000 -154.000 HU 65 990 1 41.5000 -154.000 TC 65 990 26 43
1975243N31213 1975 83 EP CP NOT_NAMED 1975-09-04 03:00:00 TS 42.5440 -152.643 main 1538 1451 P________P____ CP011975 42.6355 -152.643 HU 65 1 42.6355 -152.643 TC 65 32 44
1975243N31213 1975 83 EP CP NOT_NAMED 1975-09-04 06:00:00 TS 43.8000 -151.000 65 hurdat_epa main 1444 1325 O________O____ hurdat_epa CP011975 44.0000 -151.000 HU 65 1 44.0000 -151.000 TC 65 37 43
1975243N31213 1975 83 EP CP NOT_NAMED 1975-09-04 09:00:00 TS 45.2302 -149.206 main 1318 1199 P________P____ CP011975 45.4616 -149.100 HU 60 0 45.4616 -149.100 TC 60 40 42
1975243N31213 1975 83 EP CP NOT_NAMED 1975-09-04 12:00:00 TS 46.7895 -147.211 55 hurdat_epa main 1191 1028 O________O____ hurdat_epa CP011975 47.0000 -147.000 TS 55 0 47.0000 -147.000 TC 55 42 43
1975243N31213 1975 83 EP CP NOT_NAMED 1975-09-04 15:00:00 TS 48.3232 -145.016 main 1015 782 P________P____ CP011975 48.4225 -144.822 TS 50 0 48.4225 -144.822 TC 50 44 43
1975243N31213 1975 83 EP CP NOT_NAMED 1975-09-04 18:00:00 TS 50.0000 -142.692 45 hurdat_epa main 770 541 O________O____ hurdat_epa CP011975 50.0000 -142.600 TS 45 0 50.0000 -142.600 TC 45 47 40
1975243N31213 1975 83 EP CP NOT_NAMED 1975-09-04 21:00:00 TS 51.9391 -140.344 main 524 319 P________P____ CP011975 51.9080 -140.362 TS 40 0 51.9080 -140.362 TC 40 50 37
1975243N31213 1975 83 EP MM NOT_NAMED 1975-09-05 00:00:00 TS 54.0000 -137.875 35 hurdat_epa main 311 O________O____ hurdat_epa CP011975 54.0000 -138.000 TS 35 0 54.0000 -138.000 TC 35 50 35

About IBTrACS Database

This database is a web-friendly format of International Best Track Archive for Climate Stewardship (IBTrACS), a global best track data archive curated by NOAA dating back to 1842.

Updated: 2021-10-21